Time;durP1;ratioP1;P1;durP2;ratioP2;P2;SDS_P1;SDS_P2;PMS_P1;PMS_P2;Temp;Humidity;BMP_temperature;BMP_pressure;BME280_temperature;BME280_humidity;BME280_pressure;Samples;Min_cycle;Max_cycle;Signal;HPM_P1;HPM_P2
2022/06/28 00:00:25;;;;;;;16.73;13.57;;;13.80;99.90;;;;;;5032535;28;20137;-71
2022/06/28 00:02:51;;;;;;;25.75;19.10;;;13.80;99.90;;;;;;5032944;28;20052;-71
2022/06/28 00:05:17;;;;;;;21.38;15.35;;;13.70;99.90;;;;;;5036139;28;20051;-71
2022/06/28 00:07:43;;;;;;;20.35;17.00;;;13.60;99.90;;;;;;5033405;28;20053;-71
2022/06/28 00:10:11;;;;;;;18.08;13.05;;;13.60;99.90;;;;;;5040715;28;20102;-71
2022/06/28 00:12:37;;;;;;;15.98;11.70;;;13.50;99.90;;;;;;5033174;28;20131;-71
2022/06/28 00:17:50;;;;;;;16.75;14.95;;;13.60;99.90;;;;;;5047039;28;20114;-71
2022/06/28 00:20:16;;;;;;;14.35;11.88;;;13.60;99.90;;;;;;5037657;28;20036;-71
2022/06/28 00:22:41;;;;;;;24.75;18.00;;;13.60;99.90;;;;;;5051620;28;20060;-71
2022/06/28 00:25:07;;;;;;;19.83;15.95;;;13.50;99.90;;;;;;5038355;28;20076;-70
2022/06/28 00:27:33;;;;;;;14.93;10.50;;;13.50;99.90;;;;;;5036094;28;20060;-70
2022/06/28 00:29:59;;;;;;;12.38;9.20;;;13.50;99.90;;;;;;5032406;28;20041;-70
2022/06/28 00:32:24;;;;;;;14.07;11.07;;;13.50;99.90;;;;;;5033193;28;20045;-70
2022/06/28 00:34:50;;;;;;;16.35;11.15;;;13.40;99.90;;;;;;5046062;28;20051;-70
2022/06/28 00:37:16;;;;;;;10.45;6.45;;;13.40;99.90;;;;;;5036202;28;20470;-71
2022/06/28 00:39:41;;;;;;;15.23;12.02;;;13.50;99.90;;;;;;5053653;28;20048;-70
2022/06/28 00:42:08;;;;;;;29.13;19.75;;;13.40;99.90;;;;;;5038057;28;20049;-70
2022/06/28 00:44:35;;;;;;;11.82;9.55;;;13.40;99.90;;;;;;5044149;28;20084;-70
2022/06/28 00:47:02;;;;;;;15.73;13.63;;;13.30;99.90;;;;;;5031979;28;20049;-71
2022/06/28 00:49:29;;;;;;;25.13;19.25;;;13.30;99.90;;;;;;5031179;28;20049;-70
2022/06/28 00:51:57;;;;;;;19.85;15.90;;;13.30;99.90;;;;;;5031796;28;20049;-69
2022/06/28 00:54:23;;;;;;;23.90;18.63;;;13.30;99.90;;;;;;5049723;28;20076;-70
2022/06/28 00:56:49;;;;;;;12.60;8.63;;;13.20;99.90;;;;;;5035154;28;20098;-70
2022/06/28 00:59:14;;;;;;;16.90;12.73;;;13.20;99.90;;;;;;5048168;28;20052;-70
2022/06/28 01:01:40;;;;;;;15.15;11.18;;;13.20;99.90;;;;;;5040978;28;20106;-70
2022/06/28 01:04:06;;;;;;;11.50;7.95;;;13.30;99.90;;;;;;5052397;28;20048;-71
2022/06/28 01:06:32;;;;;;;12.57;7.90;;;13.30;99.90;;;;;;5045733;28;20506;-69
2022/06/28 01:08:58;;;;;;;14.13;10.52;;;13.30;99.90;;;;;;5023455;28;20073;-70
2022/06/28 01:11:25;;;;;;;13.90;9.30;;;13.30;99.90;;;;;;5035423;28;20122;-70
2022/06/28 01:13:53;;;;;;;12.32;9.00;;;13.30;99.90;;;;;;5046953;28;20512;-70
2022/06/28 01:16:20;;;;;;;13.50;10.77;;;13.20;99.90;;;;;;5014961;28;20046;-70
2022/06/28 01:18:46;;;;;;;18.23;14.95;;;13.30;99.90;;;;;;5038884;28;20048;-71
2022/06/28 01:21:14;;;;;;;15.57;13.38;;;13.20;99.90;;;;;;5051740;28;20065;-71
2022/06/28 01:23:42;;;;;;;17.55;14.73;;;13.20;99.90;;;;;;5051116;28;20128;-71
2022/06/28 01:26:09;;;;;;;15.07;13.00;;;13.10;99.90;;;;;;5029959;28;20068;-70
2022/06/28 01:28:35;;;;;;;10.57;7.32;;;13.10;99.90;;;;;;4997556;28;20049;-70
2022/06/28 01:31:01;;;;;;;13.82;10.57;;;13.10;99.90;;;;;;5031392;28;20104;-70
2022/06/28 01:33:27;;;;;;;17.50;15.65;;;13.10;99.90;;;;;;5048023;28;20068;-70
2022/06/28 01:35:53;;;;;;;18.92;15.40;;;13.10;99.90;;;;;;5040770;28;20132;-70
2022/06/28 01:38:19;;;;;;;9.05;7.30;;;13.10;99.90;;;;;;5042746;28;20053;-70
2022/06/28 01:40:46;;;;;;;12.70;8.00;;;13.10;99.90;;;;;;5023788;28;20487;-70
2022/06/28 01:43:13;;;;;;;12.73;8.82;;;13.10;99.90;;;;;;5048028;28;20437;-71
2022/06/28 01:45:41;;;;;;;11.80;9.82;;;13.20;99.90;;;;;;5034847;28;20052;-70
2022/06/28 01:48:07;;;;;;;13.57;10.63;;;13.20;99.90;;;;;;5040601;28;20435;-71
2022/06/28 01:50:32;;;;;;;13.23;7.93;;;13.20;99.90;;;;;;5031231;28;20542;-71
2022/06/28 01:52:58;;;;;;;13.80;8.45;;;13.30;99.90;;;;;;5024105;28;20127;-71
2022/06/28 01:55:24;;;;;;;15.57;11.23;;;13.20;99.90;;;;;;5033344;28;20393;-70
2022/06/28 01:57:49;;;;;;;11.80;9.27;;;13.20;99.90;;;;;;5035358;28;20050;-70
2022/06/28 02:00:16;;;;;;;11.55;8.52;;;13.20;99.90;;;;;;5036662;28;20088;-70
2022/06/28 02:02:42;;;;;;;16.63;12.60;;;13.20;99.90;;;;;;5035161;28;20052;-70
2022/06/28 02:05:08;;;;;;;12.15;9.93;;;13.20;99.90;;;;;;5046976;28;20492;-70
2022/06/28 02:07:34;;;;;;;14.13;11.10;;;13.10;99.90;;;;;;5018510;28;20041;-70
2022/06/28 02:10:00;;;;;;;14.77;11.02;;;13.10;99.90;;;;;;5035091;28;20048;-71
2022/06/28 02:12:28;;;;;;;10.23;7.68;;;13.10;99.90;;;;;;5035130;28;20140;-70
2022/06/28 02:14:57;;;;;;;14.00;9.40;;;13.10;99.90;;;;;;5049400;28;20037;-71
2022/06/28 02:17:23;;;;;;;12.60;9.55;;;13.10;99.90;;;;;;5034297;28;20041;-70
2022/06/28 02:19:49;;;;;;;17.48;15.15;;;13.10;99.90;;;;;;5001662;28;20053;-70
2022/06/28 02:22:15;;;;;;;10.57;7.88;;;13.20;99.90;;;;;;5043381;28;20048;-71
2022/06/28 02:24:41;;;;;;;11.13;8.13;;;13.20;99.90;;;;;;5055137;28;20041;-71
2022/06/28 02:27:06;;;;;;;13.88;11.98;;;13.20;99.90;;;;;;5041613;28;20512;-71
2022/06/28 02:29:32;;;;;;;18.58;14.75;;;13.20;99.90;;;;;;5055697;28;20080;-70
2022/06/28 02:31:58;;;;;;;14.25;10.95;;;13.20;99.90;;;;;;5037100;28;20055;-70
2022/06/28 02:42:36;;;;;;;18.58;14.73;;;13.20;99.90;;;;;;5048579;28;20060;-70
2022/06/28 02:45:03;;;;;;;12.68;8.60;;;13.20;99.90;;;;;;5028560;28;20049;-70
2022/06/28 02:47:28;;;;;;;18.48;15.85;;;13.10;99.90;;;;;;5021439;28;20053;-71
2022/06/28 02:49:54;;;;;;;16.20;10.95;;;13.10;99.90;;;;;;5043584;28;20183;-70
2022/06/28 02:52:20;;;;;;;10.32;8.15;;;13.10;99.90;;;;;;5053752;28;20106;-71
2022/06/28 02:54:45;;;;;;;10.70;9.20;;;13.10;99.90;;;;;;5055328;28;20048;-70
2022/06/28 02:57:11;;;;;;;12.10;9.57;;;13.20;99.90;;;;;;5042545;28;20037;-71
2022/06/28 02:59:37;;;;;;;14.40;12.15;;;13.20;99.90;;;;;;5048028;28;20041;-71
2022/06/28 03:02:03;;;;;;;13.88;11.65;;;13.30;99.90;;;;;;5024133;28;20091;-70
2022/06/28 03:04:28;;;;;;;16.13;13.23;;;13.30;99.90;;;;;;5033912;28;20042;-70
2022/06/28 03:06:54;;;;;;;16.30;13.32;;;13.30;99.90;;;;;;5042782;28;20120;-70
2022/06/28 03:09:20;;;;;;;13.57;9.68;;;13.30;99.90;;;;;;5035836;28;20498;-71
2022/06/28 03:11:45;;;;;;;13.30;11.43;;;13.30;99.90;;;;;;5003604;28;20053;-70
2022/06/28 03:14:11;;;;;;;15.75;13.23;;;13.40;99.90;;;;;;5033547;28;20057;-71
2022/06/28 03:16:37;;;;;;;19.77;16.10;;;13.40;99.90;;;;;;5022863;28;20466;-70
2022/06/28 03:19:02;;;;;;;23.33;20.50;;;13.40;99.90;;;;;;5053707;28;20048;-71
2022/06/28 03:21:28;;;;;;;14.77;13.18;;;13.40;99.90;;;;;;5054161;28;20056;-72
2022/06/28 03:23:54;;;;;;;23.17;20.73;;;13.40;99.90;;;;;;5046136;28;20054;-72
2022/06/28 03:26:20;;;;;;;17.88;15.18;;;13.40;99.90;;;;;;5033813;28;20037;-72
2022/06/28 03:28:45;;;;;;;28.80;23.52;;;13.30;99.90;;;;;;5037138;28;20049;-71
2022/06/28 03:31:11;;;;;;;22.75;19.08;;;13.40;99.90;;;;;;5054156;28;20049;-71
2022/06/28 03:33:36;;;;;;;24.60;21.23;;;13.40;99.90;;;;;;5040286;28;20045;-70
2022/06/28 03:36:02;;;;;;;24.42;21.95;;;13.30;99.90;;;;;;5054506;28;20135;-71
2022/06/28 03:38:28;;;;;;;23.30;20.85;;;13.30;99.90;;;;;;5021241;28;20056;-71
2022/06/28 03:40:54;;;;;;;18.40;16.52;;;13.30;99.90;;;;;;5034325;28;20041;-71
2022/06/28 03:43:20;;;;;;;19.80;17.35;;;13.30;99.90;;;;;;5046570;28;20045;-70
2022/06/28 03:45:45;;;;;;;19.13;16.00;;;13.30;99.90;;;;;;5052872;28;20080;-70
2022/06/28 03:48:11;;;;;;;15.25;13.15;;;13.30;99.90;;;;;;5044219;28;20407;-70
2022/06/28 03:50:37;;;;;;;21.27;18.95;;;13.30;99.90;;;;;;5033685;28;20041;-71
2022/06/28 03:53:03;;;;;;;17.33;15.52;;;13.30;99.90;;;;;;5032935;28;20041;-72
2022/06/28 03:55:29;;;;;;;15.38;13.77;;;13.30;99.90;;;;;;5033261;28;20137;-71
2022/06/28 03:57:55;;;;;;;16.05;13.98;;;13.30;99.90;;;;;;5048913;28;20128;-70
2022/06/28 04:00:20;;;;;;;19.40;15.88;;;13.30;99.90;;;;;;5025541;28;20144;-70
2022/06/28 04:02:46;;;;;;;14.50;12.48;;;13.30;99.90;;;;;;5051608;28;20040;-70
2022/06/28 04:05:12;;;;;;;17.88;16.00;;;13.20;99.90;;;;;;5044259;28;20052;-70
2022/06/28 04:07:37;;;;;;;24.42;21.75;;;13.20;99.90;;;;;;5033493;28;20128;-71
2022/06/28 04:10:03;;;;;;;19.85;17.85;;;13.20;99.90;;;;;;5042169;28;20476;-70
2022/06/28 04:12:29;;;;;;;16.15;13.80;;;13.20;99.90;;;;;;5040342;28;20464;-70
2022/06/28 04:14:55;;;;;;;13.13;11.70;;;13.20;99.90;;;;;;5047359;28;20065;-70
2022/06/28 04:17:21;;;;;;;18.35;16.38;;;13.20;99.90;;;;;;5033910;28;20055;-71
2022/06/28 04:19:46;;;;;;;27.77;24.15;;;13.30;99.90;;;;;;5034065;28;20049;-72
2022/06/28 04:22:12;;;;;;;23.15;20.23;;;13.20;99.90;;;;;;5052284;28;20586;-71
2022/06/28 04:24:37;;;;;;;28.35;25.33;;;13.20;99.90;;;;;;5039212;28;20054;-71
2022/06/28 04:27:04;;;;;;;18.98;17.00;;;13.20;99.90;;;;;;5033743;28;20111;-74
2022/06/28 04:29:29;;;;;;;28.40;23.92;;;13.20;99.90;;;;;;5031996;28;20531;-70
2022/06/28 04:31:55;;;;;;;25.83;21.48;;;13.30;99.90;;;;;;5032315;28;20049;-70
2022/06/28 04:34:22;;;;;;;27.23;24.30;;;13.30;99.90;;;;;;5042069;28;20056;-70
2022/06/28 04:36:48;;;;;;;26.70;23.80;;;13.30;99.90;;;;;;5035806;28;20507;-70
2022/06/28 04:39:13;;;;;;;28.65;25.55;;;13.20;99.90;;;;;;5041595;28;20048;-71
2022/06/28 04:41:39;;;;;;;27.45;24.65;;;13.20;99.90;;;;;;5037719;28;20519;-70
2022/06/28 04:44:05;;;;;;;32.28;28.75;;;13.20;99.90;;;;;;5037610;28;20052;-70
2022/06/28 04:46:31;;;;;;;27.23;24.25;;;13.20;99.90;;;;;;5041015;28;20543;-71
2022/06/28 04:48:56;;;;;;;25.83;23.02;;;13.20;99.90;;;;;;5033244;28;20144;-70
2022/06/28 04:51:22;;;;;;;29.83;26.38;;;13.20;99.90;;;;;;5033392;28;20042;-70
2022/06/28 04:53:48;;;;;;;32.70;28.27;;;13.30;99.90;;;;;;5032094;28;20120;-71
2022/06/28 04:56:14;;;;;;;30.58;25.75;;;13.50;99.90;;;;;;5039621;28;20041;-70
2022/06/28 04:58:40;;;;;;;30.38;27.27;;;13.60;99.90;;;;;;5039758;28;20041;-70
2022/06/28 05:01:06;;;;;;;27.13;23.63;;;14.10;99.90;;;;;;5050069;28;20403;-70
2022/06/28 05:03:31;;;;;;;27.02;23.20;;;14.80;99.90;;;;;;5053186;28;20128;-70
2022/06/28 05:05:57;;;;;;;24.10;21.50;;;15.20;99.90;;;;;;5049943;28;20512;-70
2022/06/28 05:08:23;;;;;;;19.27;17.27;;;15.70;99.90;;;;;;5032718;28;20119;-70
2022/06/28 05:10:49;;;;;;;20.10;18.00;;;16.10;99.90;;;;;;5032674;28;20053;-70
2022/06/28 05:13:15;;;;;;;19.08;15.68;;;17.10;99.90;;;;;;5028196;28;20412;-70
2022/06/28 05:15:41;;;;;;;18.25;15.38;;;17.70;99.90;;;;;;5042633;28;20053;-70
2022/06/28 05:18:07;;;;;;;17.48;15.70;;;18.00;99.90;;;;;;5030265;28;20045;-70
2022/06/28 05:20:32;;;;;;;17.73;12.43;;;18.40;99.90;;;;;;5048225;28;20045;-71
2022/06/28 05:22:58;;;;;;;14.20;12.70;;;18.80;99.90;;;;;;5032090;28;20053;-70
2022/06/28 05:25:25;;;;;;;15.88;12.70;;;19.10;99.90;;;;;;5048247;28;20049;-71
2022/06/28 05:27:51;;;;;;;13.90;10.27;;;19.70;99.90;;;;;;5030552;28;20064;-70
2022/06/28 05:30:18;;;;;;;14.77;11.02;;;19.90;99.90;;;;;;5030853;28;20133;-71
2022/06/28 05:32:44;;;;;;;15.82;12.68;;;20.00;99.90;;;;;;5014415;28;20404;-71
2022/06/28 05:35:09;;;;;;;14.73;11.15;;;19.70;99.90;;;;;;5031405;28;20057;-71
2022/06/28 05:37:35;;;;;;;14.65;11.43;;;19.90;99.90;;;;;;5039629;28;20114;-71
2022/06/28 05:40:02;;;;;;;15.63;11.25;;;19.20;99.90;;;;;;5037029;28;20049;-71
2022/06/28 05:42:28;;;;;;;13.75;10.65;;;19.10;99.90;;;;;;5014259;28;20049;-71
2022/06/28 05:44:53;;;;;;;14.63;10.93;;;19.30;99.90;;;;;;5045452;28;20093;-71
2022/06/28 05:47:19;;;;;;;15.05;10.73;;;19.70;99.90;;;;;;5049953;28;20500;-70
2022/06/28 05:49:45;;;;;;;14.07;10.68;;;19.80;99.90;;;;;;5052316;28;20136;-71
2022/06/28 05:52:10;;;;;;;14.95;10.65;;;19.40;99.90;;;;;;5037507;28;20049;-71
2022/06/28 05:54:36;;;;;;;12.98;9.80;;;19.20;99.90;;;;;;5045069;28;20079;-72
2022/06/28 05:57:02;;;;;;;13.05;9.55;;;19.80;99.90;;;;;;5044143;28;20052;-73
2022/06/28 05:59:28;;;;;;;13.85;9.52;;;20.10;99.90;;;;;;5044929;28;20053;-71
2022/06/28 06:01:55;;;;;;;11.77;9.68;;;20.70;99.90;;;;;;5031029;28;20042;-71
2022/06/28 06:04:22;;;;;;;13.65;8.95;;;21.10;99.90;;;;;;5014572;28;20124;-71
2022/06/28 06:06:48;;;;;;;13.48;9.68;;;21.30;99.90;;;;;;5040129;28;20049;-72
2022/06/28 06:09:14;;;;;;;11.45;8.57;;;21.40;99.90;;;;;;5035133;28;20057;-72
2022/06/28 06:11:40;;;;;;;14.38;9.32;;;21.80;99.90;;;;;;5032053;28;20091;-72
2022/06/28 06:14:05;;;;;;;14.20;7.82;;;22.10;99.90;;;;;;5046255;28;20107;-70
2022/06/28 06:16:31;;;;;;;14.23;9.52;;;22.30;99.90;;;;;;5035319;28;20099;-71
2022/06/28 06:18:57;;;;;;;12.68;8.30;;;22.60;99.90;;;;;;5041145;28;20057;-71
2022/06/28 06:21:23;;;;;;;13.23;8.38;;;23.10;99.90;;;;;;5046048;28;20057;-72
2022/06/28 06:23:49;;;;;;;11.23;7.70;;;23.20;99.90;;;;;;5051723;28;20124;-72
2022/06/28 06:26:14;;;;;;;13.77;8.27;;;23.50;99.90;;;;;;5051872;28;20048;-73
2022/06/28 06:28:40;;;;;;;11.02;7.43;;;23.20;99.90;;;;;;5045306;28;20034;-71
2022/06/28 06:31:08;;;;;;;10.77;8.02;;;22.80;99.90;;;;;;5043229;28;20129;-73
2022/06/28 06:33:34;;;;;;;11.93;8.10;;;22.90;99.90;;;;;;5036237;28;20053;-72
2022/06/28 06:36:02;;;;;;;12.48;7.25;;;23.20;99.90;;;;;;5041020;28;20120;-73
2022/06/28 06:38:27;;;;;;;10.77;6.80;;;23.10;99.90;;;;;;5030340;28;20049;-72
2022/06/28 06:40:55;;;;;;;11.23;6.93;;;23.50;99.90;;;;;;5032174;28;20045;-72
2022/06/28 06:43:22;;;;;;;13.68;7.45;;;23.90;99.90;;;;;;5032742;28;20050;-72
2022/06/28 06:45:47;;;;;;;11.23;7.38;;;23.60;99.90;;;;;;5040596;28;20155;-73
2022/06/28 06:48:13;;;;;;;11.00;6.88;;;24.20;99.90;;;;;;5041821;28;20128;-74
2022/06/28 06:50:39;;;;;;;12.43;6.68;;;23.90;99.90;;;;;;5035021;28;20053;-73
2022/06/28 06:53:05;;;;;;;11.13;5.55;;;24.00;99.90;;;;;;5043690;28;20056;-72
2022/06/28 06:55:31;;;;;;;11.45;6.30;;;23.90;99.50;;;;;;5053527;28;20072;-72
2022/06/28 06:57:56;;;;;;;12.15;5.90;;;23.80;99.80;;;;;;5039099;28;20040;-72
2022/06/28 07:00:22;;;;;;;10.85;5.95;;;24.00;99.90;;;;;;5043053;28;20091;-73
2022/06/28 07:02:48;;;;;;;11.27;6.05;;;24.40;99.40;;;;;;5033744;28;20103;-71
2022/06/28 07:05:14;;;;;;;10.13;5.30;;;24.30;99.90;;;;;;5034815;28;20515;-73
2022/06/28 07:07:39;;;;;;;11.48;5.10;;;24.90;98.40;;;;;;5049515;28;20084;-73
2022/06/28 07:10:05;;;;;;;10.88;5.47;;;24.90;97.90;;;;;;5045517;28;20537;-72
2022/06/28 07:12:31;;;;;;;14.25;6.10;;;24.90;97.50;;;;;;5032802;28;20092;-73
2022/06/28 07:14:57;;;;;;;10.48;5.72;;;24.90;97.80;;;;;;5034609;28;20077;-71
2022/06/28 07:17:23;;;;;;;9.82;5.18;;;24.60;96.00;;;;;;5045258;28;20036;-72
2022/06/28 07:19:49;;;;;;;13.82;6.30;;;24.40;98.70;;;;;;5051914;28;20051;-73
2022/06/28 07:22:14;;;;;;;9.30;5.43;;;23.90;98.70;;;;;;5025360;28;20547;-73
2022/06/28 07:24:40;;;;;;;11.45;5.63;;;23.50;99.60;;;;;;5054640;28;20076;-73
2022/06/28 07:27:06;;;;;;;10.23;5.70;;;23.60;99.90;;;;;;5047661;28;20048;-73
2022/06/28 07:29:31;;;;;;;11.52;5.60;;;23.70;99.90;;;;;;5047151;28;20041;-73
2022/06/28 07:31:57;;;;;;;11.93;5.85;;;23.60;99.90;;;;;;5050003;28;20041;-73
2022/06/28 07:34:23;;;;;;;11.50;5.15;;;23.20;99.90;;;;;;5034822;28;20371;-74
2022/06/28 07:36:50;;;;;;;12.80;5.10;;;23.30;99.90;;;;;;5050473;28;20044;-73
2022/06/28 07:39:18;;;;;;;10.85;4.38;;;23.10;99.90;;;;;;5053318;28;20049;-72
2022/06/28 07:41:44;;;;;;;12.73;4.70;;;23.00;99.90;;;;;;5052251;28;20048;-73
2022/06/28 07:44:10;;;;;;;10.50;4.50;;;22.50;99.90;;;;;;5033037;28;20094;-73
2022/06/28 07:46:35;;;;;;;12.15;5.32;;;22.40;99.90;;;;;;5033490;28;20132;-73
2022/06/28 07:49:01;;;;;;;11.82;4.93;;;22.40;99.90;;;;;;5047466;28;20041;-73
2022/06/28 07:54:11;;;;;;;10.07;4.30;;;23.00;99.90;;;;;;5032877;28;20072;-74
2022/06/28 07:56:37;;;;;;;10.35;3.97;;;23.40;99.90;;;;;;5044173;28;20465;-74
2022/06/28 07:59:03;;;;;;;10.63;4.30;;;23.90;99.90;;;;;;5037608;28;20481;-75
2022/06/28 08:01:29;;;;;;;11.55;4.50;;;24.00;99.60;;;;;;5033228;28;20041;-72
2022/06/28 08:03:54;;;;;;;10.68;4.13;;;24.00;99.50;;;;;;5033788;28;20045;-73
2022/06/28 08:06:20;;;;;;;10.80;3.72;;;23.80;98.40;;;;;;5029602;28;20045;-74
2022/06/28 08:08:46;;;;;;;8.35;3.72;;;23.70;99.20;;;;;;5044308;28;20110;-74
2022/06/28 08:11:11;;;;;;;12.93;4.45;;;24.10;99.30;;;;;;5020221;28;20049;-73
2022/06/28 08:13:37;;;;;;;11.40;4.22;;;24.20;98.20;;;;;;5038954;28;20092;-75
2022/06/28 08:16:04;;;;;;;10.18;3.47;;;24.40;98.00;;;;;;5040420;28;20535;-74
2022/06/28 08:18:30;;;;;;;9.48;3.72;;;24.70;96.90;;;;;;5037131;28;20040;-72
2022/06/28 08:20:55;;;;;;;9.25;3.30;;;25.00;95.80;;;;;;5043640;28;20045;-75
2022/06/28 08:23:21;;;;;;;9.00;2.80;;;25.10;95.20;;;;;;5045092;28;20049;-74
2022/06/28 08:25:47;;;;;;;8.30;3.20;;;25.00;91.70;;;;;;5057351;28;20041;-75
2022/06/28 08:28:13;;;;;;;8.73;3.35;;;24.80;91.80;;;;;;5038695;28;20041;-72
2022/06/28 08:30:40;;;;;;;7.93;3.33;;;24.60;91.50;;;;;;5032666;28;20057;-74
2022/06/28 08:33:06;;;;;;;9.73;3.50;;;24.40;92.20;;;;;;5044274;28;20057;-74
2022/06/28 08:35:32;;;;;;;9.45;3.33;;;24.20;92.90;;;;;;5034050;28;20049;-76
2022/06/28 08:37:58;;;;;;;8.80;3.20;;;24.40;93.30;;;;;;5031889;28;20484;-74
2022/06/28 08:40:25;;;;;;;10.00;3.42;;;24.80;93.30;;;;;;5049376;28;20041;-74
2022/06/28 08:42:55;;;;;;;10.20;3.72;;;24.80;92.10;;;;;;5052090;28;20495;-76
2022/06/28 08:45:22;;;;;;;10.65;3.30;;;24.60;91.50;;;;;;5036907;28;20080;-73
2022/06/28 08:47:52;;;;;;;7.03;2.63;;;24.40;93.80;;;;;;5031993;28;20056;-75
2022/06/28 08:50:24;;;;;;;8.20;3.28;;;24.60;91.60;;;;;;5045884;28;20060;-74
2022/06/28 08:52:51;;;;;;;8.43;3.10;;;24.40;90.40;;;;;;5045456;28;20424;-76
2022/06/28 08:55:18;;;;;;;8.60;2.33;;;24.40;92.20;;;;;;5044408;28;20048;-73
2022/06/28 08:57:44;;;;;;;8.88;2.30;;;24.30;92.00;;;;;;5031774;28;20037;-74
2022/06/28 09:00:12;;;;;;;8.40;2.50;;;24.20;91.30;;;;;;5032089;28;20041;-76
2022/06/28 09:02:38;;;;;;;7.47;2.40;;;23.80;88.10;;;;;;5028920;28;20073;-75
2022/06/28 09:05:04;;;;;;;6.78;2.40;;;23.50;91.00;;;;;;5031838;28;20208;-76
2022/06/28 09:07:30;;;;;;;7.50;2.50;;;23.30;92.10;;;;;;5032611;28;20053;-77
2022/06/28 09:09:56;;;;;;;8.40;2.38;;;23.40;93.80;;;;;;5044085;28;20063;-76
2022/06/28 09:12:22;;;;;;;7.18;2.45;;;23.30;92.80;;;;;;5030294;28;20143;-74
2022/06/28 09:14:48;;;;;;;8.38;2.00;;;23.40;93.00;;;;;;5046618;28;20045;-75
2022/06/28 09:17:27;;;;;;;6.93;2.20;;;23.70;89.70;;;;;;5031212;28;20037;-77
2022/06/28 09:19:59;;;;;;;11.82;2.20;;;23.90;91.10;;;;;;5044894;28;20526;-74
2022/06/28 09:22:32;;;;;;;;;;;24.10;91.50;;;;;;5048291;28;20053;-75
2022/06/28 09:24:59;;;;;;;8.05;1.80;;;24.40;90.10;;;;;;5031091;28;19921;-74
2022/06/28 09:27:33;;;;;;;5.18;1.55;;;24.60;87.50;;;;;;5039119;28;20590;-75
2022/06/28 09:29:59;;;;;;;8.80;2.00;;;24.70;81.90;;;;;;5050187;28;20102;-76
2022/06/28 09:32:30;;;;;;;5.47;1.52;;;24.80;82.30;;;;;;5048079;28;20497;-75
2022/06/28 09:35:00;;;;;;;6.22;1.50;;;24.40;80.80;;;;;;5031340;28;20125;-75
2022/06/28 09:37:32;;;;;;;6.97;1.80;;;24.30;82.40;;;;;;5050558;28;20403;-74
2022/06/28 09:40:11;;;;;;;7.00;1.60;;;24.40;84.40;;;;;;5038875;28;20124;-75
2022/06/28 09:42:37;;;;;;;9.07;2.20;;;24.50;82.50;;;;;;5036857;28;20516;-77
2022/06/28 09:45:04;;;;;;;7.35;2.00;;;24.70;82.00;;;;;;5038879;28;20045;-77
2022/06/28 09:47:30;;;;;;;7.18;2.00;;;24.70;79.70;;;;;;5044656;28;20041;-74
2022/06/28 09:49:56;;;;;;;8.23;1.90;;;24.70;82.20;;;;;;5032331;28;20133;-76
2022/06/28 09:52:29;;;;;;;8.82;1.90;;;24.50;79.90;;;;;;5034319;28;20553;-77
2022/06/28 09:54:56;;;;;;;6.53;1.63;;;24.30;77.50;;;;;;5041920;28;20068;-74
2022/06/28 09:57:23;;;;;;;9.02;1.92;;;24.20;79.60;;;;;;5045256;28;20052;-75
2022/06/28 09:59:54;;;;;;;8.25;1.80;;;23.80;83.50;;;;;;5051328;28;20057;-77
2022/06/28 10:02:20;;;;;;;7.13;1.80;;;23.70;82.60;;;;;;5036552;28;20052;-77
2022/06/28 10:04:46;;;;;;;8.52;1.80;;;23.90;84.80;;;;;;5051058;28;20045;-76
2022/06/28 10:07:13;;;;;;;5.80;1.65;;;24.20;84.90;;;;;;5038318;28;20069;-76
2022/06/28 10:09:39;;;;;;;5.53;1.65;;;24.50;82.80;;;;;;5046741;28;20051;-75
2022/06/28 10:15:01;;;;;;;7.53;1.70;;;24.90;81.80;;;;;;5037432;28;20037;-75
2022/06/28 10:18:05;;;;;;;9.02;1.60;;;25.10;79.30;;;;;;5051500;28;20427;-77
2022/06/28 10:20:32;;;;;;;5.03;1.30;;;25.10;71.10;;;;;;5033541;28;20401;-75
2022/06/28 10:23:33;;;;;;;6.72;1.40;;;25.10;73.70;;;;;;5016248;28;20139;-76
2022/06/28 10:26:15;;;;;;;8.43;1.70;;;25.10;73.10;;;;;;5035012;28;20419;-75
2022/06/28 10:28:43;;;;;;;6.03;1.42;;;25.30;69.70;;;;;;5040354;28;20076;-74
2022/06/28 10:31:23;;;;;;;7.03;1.60;;;25.40;68.10;;;;;;5043043;28;20411;-75
2022/06/28 10:33:55;;;;;;;7.18;1.63;;;24.80;65.50;;;;;;5048332;28;20037;-75
2022/06/28 10:36:26;;;;;;;7.43;1.73;;;24.70;69.50;;;;;;5034764;28;20049;-75
2022/06/28 10:39:00;;;;;;;6.43;1.65;;;25.00;69.70;;;;;;5034157;28;20080;-75
2022/06/28 10:42:04;;;;;;;5.78;1.60;;;25.00;66.80;;;;;;5034797;28;20365;-74
2022/06/28 10:44:31;;;;;;;6.30;1.55;;;25.00;69.00;;;;;;5034323;28;20080;-74
2022/06/28 10:47:05;;;;;;;5.82;1.55;;;24.90;67.10;;;;;;5064775;28;20049;-75
2022/06/28 10:49:46;;;;;;;7.75;1.60;;;25.10;66.80;;;;;;5034662;28;20050;-75
2022/06/28 10:52:32;;;;;;;5.63;1.75;;;25.20;67.10;;;;;;5064551;28;20063;-76
2022/06/28 10:54:58;;;;;;;5.30;1.50;;;25.40;65.80;;;;;;5034333;28;20049;-76
2022/06/28 10:57:34;;;;;;;6.95;1.63;;;25.50;69.80;;;;;;5034474;28;20052;-74
2022/06/28 11:00:04;;;;;;;5.97;1.60;;;25.60;67.50;;;;;;5034190;28;20051;-78
2022/06/28 11:02:52;;;;;;;5.75;1.60;;;25.60;64.80;;;;;;5033860;28;20080;-78
2022/06/28 11:05:19;;;;;;;7.65;1.88;;;25.50;63.70;;;;;;5035311;28;20092;-76
2022/06/28 11:07:58;;;;;;;7.03;1.80;;;25.40;63.40;;;;;;5048240;28;20388;-75
2022/06/28 11:10:24;;;;;;;6.97;1.50;;;24.90;63.60;;;;;;5044291;28;20045;-77
2022/06/28 11:12:50;;;;;;;7.57;1.67;;;24.80;68.90;;;;;;5020121;28;20427;-77
2022/06/28 11:15:36;;;;;;;6.70;1.80;;;25.00;69.70;;;;;;5048179;28;20057;-76
2022/06/28 11:18:13;;;;;;;7.40;1.75;;;25.00;66.20;;;;;;5004204;28;20053;-77
2022/06/28 11:20:39;;;;;;;6.63;1.80;;;24.70;66.90;;;;;;5035114;28;20045;-74
2022/06/28 11:23:06;;;;;;;6.85;1.75;;;25.00;66.70;;;;;;5034873;28;20049;-77
2022/06/28 11:28:16;;;;;;;5.85;1.85;;;25.50;59.20;;;;;;5049345;28;20057;-74
2022/06/28 11:30:42;;;;;;;5.78;1.88;;;25.40;56.20;;;;;;5052495;28;20045;-74
2022/06/28 11:33:10;;;;;;;6.82;1.80;;;25.30;59.70;;;;;;5034975;28;20048;-77
2022/06/28 11:35:36;;;;;;;6.57;1.52;;;25.20;63.50;;;;;;5040169;28;20487;-75
2022/06/28 11:38:09;;;;;;;6.50;1.60;;;25.50;68.20;;;;;;5040033;28;20045;-75
2022/06/28 11:40:47;;;;;;;5.40;1.50;;;25.80;63.90;;;;;;5031152;28;20512;-74
2022/06/28 11:43:20;;;;;;;6.82;1.85;;;25.80;61.80;;;;;;5033034;28;20128;-77
2022/06/28 11:45:49;;;;;;;6.55;1.65;;;25.80;59.40;;;;;;5033569;28;20045;-75
2022/06/28 11:48:17;;;;;;;6.00;1.60;;;25.80;61.70;;;;;;5033292;28;20072;-75
2022/06/28 11:50:46;;;;;;;4.93;1.38;;;25.90;61.20;;;;;;5036293;28;20403;-76
2022/06/28 11:53:14;;;;;;;6.28;1.60;;;25.80;60.40;;;;;;5053405;28;20076;-76
2022/06/28 11:55:43;;;;;;;5.55;1.40;;;25.50;60.90;;;;;;5053115;28;20400;-73
2022/06/28 11:58:19;;;;;;;6.10;1.70;;;25.40;59.40;;;;;;5045056;28;20099;-75
2022/06/28 12:01:03;;;;;;;5.50;1.70;;;25.00;60.90;;;;;;5033765;28;20060;-74
2022/06/28 12:03:31;;;;;;;5.50;1.50;;;24.90;64.20;;;;;;5053983;28;20049;-74
2022/06/28 12:05:59;;;;;;;7.18;1.80;;;24.70;63.30;;;;;;5032522;28;20058;-75
2022/06/28 12:08:44;;;;;;;6.18;1.60;;;24.90;64.40;;;;;;5041451;28;20049;-78
2022/06/28 12:11:44;;;;;;;7.32;1.75;;;25.10;61.30;;;;;;5036368;28;20476;-75
2022/06/28 12:14:42;;;;;;;6.18;1.60;;;25.10;61.70;;;;;;5051591;28;20053;-75
2022/06/28 12:17:08;;;;;;;7.57;1.65;;;25.10;63.10;;;;;;5011192;28;20433;-73
2022/06/28 12:19:38;;;;;;;6.60;1.50;;;25.30;55.70;;;;;;5016132;28;20129;-75
2022/06/28 12:22:06;;;;;;;7.15;1.55;;;25.30;54.00;;;;;;5039107;28;20102;-77
2022/06/28 12:24:43;;;;;;;7.88;1.70;;;25.30;57.90;;;;;;5039870;28;20551;-76
2022/06/28 12:27:14;;;;;;;7.15;1.77;;;25.30;60.70;;;;;;5031574;28;20053;-76
2022/06/28 12:29:39;;;;;;;5.93;1.40;;;25.40;59.70;;;;;;5032791;28;20072;-78
2022/06/28 12:32:06;;;;;;;6.95;1.60;;;25.60;57.30;;;;;;5031998;28;20175;-74
2022/06/28 12:34:32;;;;;;;6.05;1.30;;;25.60;54.70;;;;;;5045565;28;20106;-75
2022/06/28 12:36:57;;;;;;;6.55;1.60;;;25.30;55.50;;;;;;5048080;28;20042;-74
2022/06/28 12:39:23;;;;;;;6.35;1.70;;;25.00;57.90;;;;;;5042966;28;20127;-75
2022/06/28 12:41:49;;;;;;;5.65;1.50;;;24.90;57.70;;;;;;5033412;28;20049;-75
2022/06/28 12:44:15;;;;;;;6.78;1.50;;;24.80;57.00;;;;;;5031535;28;20060;-74
2022/06/28 12:46:41;;;;;;;8.10;1.50;;;24.90;59.30;;;;;;5032336;28;20057;-75
2022/06/28 12:49:07;;;;;;;6.10;1.25;;;25.20;59.90;;;;;;5036573;28;20041;-75
2022/06/28 12:51:33;;;;;;;6.45;1.50;;;25.40;60.00;;;;;;5053532;28;20059;-76
2022/06/28 12:53:58;;;;;;;5.72;1.40;;;25.70;60.60;;;;;;5050249;28;20056;-81
2022/06/28 12:56:24;;;;;;;5.78;1.63;;;25.60;58.20;;;;;;5033304;28;20049;-75
2022/06/28 12:58:50;;;;;;;6.13;1.50;;;25.70;58.50;;;;;;5033921;28;20045;-77